sensor_id;sensor_type;location;lat;lon;timestamp;P1;durP1;ratioP1;P2;durP2;ratioP2
5343;SDS011;2694;48.954;8.928;2023-04-06T00:01:07;9.60;;;5.40;;
5343;SDS011;2694;48.954;8.928;2023-04-06T00:03:34;10.30;;;5.70;;
5343;SDS011;2694;48.954;8.928;2023-04-06T00:06:01;10.60;;;5.40;;
5343;SDS011;2694;48.954;8.928;2023-04-06T00:08:29;9.82;;;5.60;;
5343;SDS011;2694;48.954;8.928;2023-04-06T00:10:56;9.40;;;5.68;;
5343;SDS011;2694;48.954;8.928;2023-04-06T00:13:23;10.50;;;5.68;;
5343;SDS011;2694;48.954;8.928;2023-04-06T00:15:50;9.32;;;5.10;;
5343;SDS011;2694;48.954;8.928;2023-04-06T00:18:19;11.05;;;5.90;;
5343;SDS011;2694;48.954;8.928;2023-04-06T00:20:46;10.57;;;5.90;;
5343;SDS011;2694;48.954;8.928;2023-04-06T00:23:13;14.15;;;6.00;;
5343;SDS011;2694;48.954;8.928;2023-04-06T00:25:40;12.73;;;5.38;;
5343;SDS011;2694;48.954;8.928;2023-04-06T00:28:07;10.30;;;6.25;;
5343;SDS011;2694;48.954;8.928;2023-04-06T00:30:34;12.23;;;6.07;;
5343;SDS011;2694;48.954;8.928;2023-04-06T00:33:01;13.38;;;6.90;;
5343;SDS011;2694;48.954;8.928;2023-04-06T00:35:30;12.45;;;6.97;;
5343;SDS011;2694;48.954;8.928;2023-04-06T00:37:57;10.57;;;5.60;;
5343;SDS011;2694;48.954;8.928;2023-04-06T00:40:24;7.70;;;5.80;;
5343;SDS011;2694;48.954;8.928;2023-04-06T00:42:53;11.48;;;6.53;;
5343;SDS011;2694;48.954;8.928;2023-04-06T00:45:20;13.32;;;5.97;;
5343;SDS011;2694;48.954;8.928;2023-04-06T00:47:47;12.00;;;6.05;;
5343;SDS011;2694;48.954;8.928;2023-04-06T00:50:14;10.90;;;5.72;;
5343;SDS011;2694;48.954;8.928;2023-04-06T00:52:42;10.43;;;5.67;;
5343;SDS011;2694;48.954;8.928;2023-04-06T00:55:09;11.87;;;6.77;;
5343;SDS011;2694;48.954;8.928;2023-04-06T00:57:36;9.23;;;5.90;;
5343;SDS011;2694;48.954;8.928;2023-04-06T01:00:07;9.90;;;6.35;;
5343;SDS011;2694;48.954;8.928;2023-04-06T01:02:38;7.75;;;5.70;;
5343;SDS011;2694;48.954;8.928;2023-04-06T01:05:06;10.85;;;5.65;;
5343;SDS011;2694;48.954;8.928;2023-04-06T01:07:33;11.60;;;6.40;;
5343;SDS011;2694;48.954;8.928;2023-04-06T01:10:02;10.65;;;6.35;;
5343;SDS011;2694;48.954;8.928;2023-04-06T01:12:29;12.07;;;6.40;;
5343;SDS011;2694;48.954;8.928;2023-04-06T01:14:56;9.15;;;5.85;;
5343;SDS011;2694;48.954;8.928;2023-04-06T01:17:23;11.45;;;6.20;;
5343;SDS011;2694;48.954;8.928;2023-04-06T01:19:50;11.23;;;6.90;;
5343;SDS011;2694;48.954;8.928;2023-04-06T01:22:20;13.00;;;6.60;;
5343;SDS011;2694;48.954;8.928;2023-04-06T01:24:47;11.90;;;7.07;;
5343;SDS011;2694;48.954;8.928;2023-04-06T01:27:14;9.93;;;6.38;;
5343;SDS011;2694;48.954;8.928;2023-04-06T01:29:41;10.63;;;6.43;;
5343;SDS011;2694;48.954;8.928;2023-04-06T01:32:08;10.45;;;6.50;;
5343;SDS011;2694;48.954;8.928;2023-04-06T01:34:35;10.40;;;6.75;;
5343;SDS011;2694;48.954;8.928;2023-04-06T01:37:02;14.90;;;6.72;;
5343;SDS011;2694;48.954;8.928;2023-04-06T01:39:31;12.35;;;6.65;;
5343;SDS011;2694;48.954;8.928;2023-04-06T01:41:58;10.80;;;6.15;;
5343;SDS011;2694;48.954;8.928;2023-04-06T01:44:25;12.52;;;6.75;;
5343;SDS011;2694;48.954;8.928;2023-04-06T01:46:52;10.40;;;6.32;;
5343;SDS011;2694;48.954;8.928;2023-04-06T01:49:19;14.27;;;6.68;;
5343;SDS011;2694;48.954;8.928;2023-04-06T01:51:46;14.93;;;7.20;;
5343;SDS011;2694;48.954;8.928;2023-04-06T01:54:13;12.52;;;6.93;;
5343;SDS011;2694;48.954;8.928;2023-04-06T01:56:42;11.85;;;7.50;;
5343;SDS011;2694;48.954;8.928;2023-04-06T01:59:09;14.48;;;7.80;;
5343;SDS011;2694;48.954;8.928;2023-04-06T02:01:36;14.43;;;7.40;;
5343;SDS011;2694;48.954;8.928;2023-04-06T02:04:03;15.07;;;7.90;;
5343;SDS011;2694;48.954;8.928;2023-04-06T02:06:30;15.73;;;7.93;;
5343;SDS011;2694;48.954;8.928;2023-04-06T02:08:57;14.98;;;7.63;;
5343;SDS011;2694;48.954;8.928;2023-04-06T02:11:24;12.90;;;8.07;;
5343;SDS011;2694;48.954;8.928;2023-04-06T02:13:52;14.37;;;7.80;;
5343;SDS011;2694;48.954;8.928;2023-04-06T02:16:20;16.17;;;7.13;;
5343;SDS011;2694;48.954;8.928;2023-04-06T02:18:47;14.10;;;8.10;;
5343;SDS011;2694;48.954;8.928;2023-04-06T02:21:15;11.40;;;7.28;;
5343;SDS011;2694;48.954;8.928;2023-04-06T02:23:45;12.32;;;7.40;;
5343;SDS011;2694;48.954;8.928;2023-04-06T02:26:12;14.10;;;7.20;;
5343;SDS011;2694;48.954;8.928;2023-04-06T02:28:39;15.23;;;8.00;;
5343;SDS011;2694;48.954;8.928;2023-04-06T02:31:08;13.35;;;7.00;;
5343;SDS011;2694;48.954;8.928;2023-04-06T02:33:36;16.65;;;7.95;;
5343;SDS011;2694;48.954;8.928;2023-04-06T02:36:03;14.30;;;7.15;;
5343;SDS011;2694;48.954;8.928;2023-04-06T02:38:30;16.48;;;7.35;;
5343;SDS011;2694;48.954;8.928;2023-04-06T02:40:57;14.27;;;7.43;;
5343;SDS011;2694;48.954;8.928;2023-04-06T02:43:24;15.60;;;7.50;;
5343;SDS011;2694;48.954;8.928;2023-04-06T02:45:51;14.02;;;7.97;;
5343;SDS011;2694;48.954;8.928;2023-04-06T02:48:19;13.73;;;8.20;;
5343;SDS011;2694;48.954;8.928;2023-04-06T02:50:46;15.52;;;7.80;;
5343;SDS011;2694;48.954;8.928;2023-04-06T02:53:13;16.00;;;8.07;;
5343;SDS011;2694;48.954;8.928;2023-04-06T02:55:40;15.05;;;7.57;;
5343;SDS011;2694;48.954;8.928;2023-04-06T02:58:07;13.77;;;7.90;;
5343;SDS011;2694;48.954;8.928;2023-04-06T03:00:34;12.55;;;8.20;;
5343;SDS011;2694;48.954;8.928;2023-04-06T03:03:02;12.98;;;7.32;;
5343;SDS011;2694;48.954;8.928;2023-04-06T03:05:30;14.30;;;7.90;;
5343;SDS011;2694;48.954;8.928;2023-04-06T03:07:58;13.55;;;8.10;;
5343;SDS011;2694;48.954;8.928;2023-04-06T03:10:25;13.93;;;7.38;;
5343;SDS011;2694;48.954;8.928;2023-04-06T03:12:52;12.45;;;6.80;;
5343;SDS011;2694;48.954;8.928;2023-04-06T03:15:19;12.75;;;6.30;;
5343;SDS011;2694;48.954;8.928;2023-04-06T03:17:46;9.65;;;6.43;;
5343;SDS011;2694;48.954;8.928;2023-04-06T03:20:13;11.50;;;6.88;;
5343;SDS011;2694;48.954;8.928;2023-04-06T03:22:41;10.32;;;5.88;;
5343;SDS011;2694;48.954;8.928;2023-04-06T03:25:08;12.60;;;6.90;;
5343;SDS011;2694;48.954;8.928;2023-04-06T03:27:35;11.40;;;7.20;;
5343;SDS011;2694;48.954;8.928;2023-04-06T03:30:03;13.00;;;6.90;;
5343;SDS011;2694;48.954;8.928;2023-04-06T03:32:30;13.10;;;7.28;;
5343;SDS011;2694;48.954;8.928;2023-04-06T03:34:57;10.85;;;6.95;;
5343;SDS011;2694;48.954;8.928;2023-04-06T03:37:24;9.90;;;6.50;;
5343;SDS011;2694;48.954;8.928;2023-04-06T03:39:53;12.30;;;7.30;;
5343;SDS011;2694;48.954;8.928;2023-04-06T03:42:20;12.03;;;7.20;;
5343;SDS011;2694;48.954;8.928;2023-04-06T03:44:47;11.95;;;6.35;;
5343;SDS011;2694;48.954;8.928;2023-04-06T03:47:14;11.05;;;6.40;;
5343;SDS011;2694;48.954;8.928;2023-04-06T03:49:41;11.75;;;7.03;;
5343;SDS011;2694;48.954;8.928;2023-04-06T03:52:08;15.70;;;7.40;;
5343;SDS011;2694;48.954;8.928;2023-04-06T03:54:36;13.27;;;7.15;;
5343;SDS011;2694;48.954;8.928;2023-04-06T03:57:05;12.27;;;7.32;;
5343;SDS011;2694;48.954;8.928;2023-04-06T03:59:32;12.43;;;7.40;;
5343;SDS011;2694;48.954;8.928;2023-04-06T04:01:58;15.73;;;7.60;;
5343;SDS011;2694;48.954;8.928;2023-04-06T04:04:26;10.48;;;7.20;;
5343;SDS011;2694;48.954;8.928;2023-04-06T04:06:53;12.60;;;7.30;;
5343;SDS011;2694;48.954;8.928;2023-04-06T04:09:20;18.90;;;9.50;;
5343;SDS011;2694;48.954;8.928;2023-04-06T04:11:47;10.87;;;6.97;;
5343;SDS011;2694;48.954;8.928;2023-04-06T04:14:15;12.88;;;8.30;;
5343;SDS011;2694;48.954;8.928;2023-04-06T04:16:42;12.90;;;7.50;;
5343;SDS011;2694;48.954;8.928;2023-04-06T04:19:09;12.95;;;7.60;;
5343;SDS011;2694;48.954;8.928;2023-04-06T04:21:41;15.40;;;8.00;;
5343;SDS011;2694;48.954;8.928;2023-04-06T04:24:09;17.40;;;8.70;;
5343;SDS011;2694;48.954;8.928;2023-04-06T04:26:37;14.10;;;7.85;;
5343;SDS011;2694;48.954;8.928;2023-04-06T04:29:04;11.50;;;7.43;;
5343;SDS011;2694;48.954;8.928;2023-04-06T04:31:33;13.45;;;7.57;;
5343;SDS011;2694;48.954;8.928;2023-04-06T04:34:00;10.77;;;7.50;;
5343;SDS011;2694;48.954;8.928;2023-04-06T04:36:27;13.95;;;7.70;;
5343;SDS011;2694;48.954;8.928;2023-04-06T04:38:54;11.90;;;7.50;;
5343;SDS011;2694;48.954;8.928;2023-04-06T04:41:21;13.03;;;7.57;;
5343;SDS011;2694;48.954;8.928;2023-04-06T04:43:48;11.25;;;7.40;;
5343;SDS011;2694;48.954;8.928;2023-04-06T04:46:15;11.57;;;7.35;;
5343;SDS011;2694;48.954;8.928;2023-04-06T04:48:44;13.38;;;7.70;;
5343;SDS011;2694;48.954;8.928;2023-04-06T04:51:11;12.45;;;7.85;;
5343;SDS011;2694;48.954;8.928;2023-04-06T04:53:38;11.90;;;7.50;;
5343;SDS011;2694;48.954;8.928;2023-04-06T04:56:05;15.43;;;7.90;;
5343;SDS011;2694;48.954;8.928;2023-04-06T04:58:32;17.73;;;8.52;;
5343;SDS011;2694;48.954;8.928;2023-04-06T05:00:59;13.77;;;7.68;;
5343;SDS011;2694;48.954;8.928;2023-04-06T05:03:26;15.25;;;8.38;;
5343;SDS011;2694;48.954;8.928;2023-04-06T05:05:55;17.17;;;9.02;;
5343;SDS011;2694;48.954;8.928;2023-04-06T05:08:22;16.17;;;8.00;;
5343;SDS011;2694;48.954;8.928;2023-04-06T05:10:49;18.13;;;8.75;;
5343;SDS011;2694;48.954;8.928;2023-04-06T05:13:16;15.27;;;8.35;;
5343;SDS011;2694;48.954;8.928;2023-04-06T05:15:43;13.68;;;7.63;;
5343;SDS011;2694;48.954;8.928;2023-04-06T05:18:10;15.52;;;7.30;;
5343;SDS011;2694;48.954;8.928;2023-04-06T05:20:37;14.35;;;7.50;;
5343;SDS011;2694;48.954;8.928;2023-04-06T05:23:06;17.20;;;8.20;;
5343;SDS011;2694;48.954;8.928;2023-04-06T05:25:34;15.02;;;8.00;;
5343;SDS011;2694;48.954;8.928;2023-04-06T05:28:01;12.52;;;8.13;;
5343;SDS011;2694;48.954;8.928;2023-04-06T05:30:28;16.15;;;9.50;;
5343;SDS011;2694;48.954;8.928;2023-04-06T05:32:55;17.15;;;8.98;;
5343;SDS011;2694;48.954;8.928;2023-04-06T05:35:22;17.05;;;9.35;;
5343;SDS011;2694;48.954;8.928;2023-04-06T05:37:49;17.73;;;9.20;;
5343;SDS011;2694;48.954;8.928;2023-04-06T05:40:18;17.05;;;9.05;;
5343;SDS011;2694;48.954;8.928;2023-04-06T05:42:45;13.98;;;9.00;;
5343;SDS011;2694;48.954;8.928;2023-04-06T05:45:12;16.42;;;8.50;;
5343;SDS011;2694;48.954;8.928;2023-04-06T05:47:41;15.40;;;9.18;;
5343;SDS011;2694;48.954;8.928;2023-04-06T05:50:09;18.55;;;9.93;;
5343;SDS011;2694;48.954;8.928;2023-04-06T05:52:36;17.52;;;8.63;;
5343;SDS011;2694;48.954;8.928;2023-04-06T05:55:03;17.95;;;9.73;;
5343;SDS011;2694;48.954;8.928;2023-04-06T05:57:32;18.27;;;10.10;;
5343;SDS011;2694;48.954;8.928;2023-04-06T05:59:59;15.75;;;9.48;;
5343;SDS011;2694;48.954;8.928;2023-04-06T06:02:30;18.63;;;9.52;;
5343;SDS011;2694;48.954;8.928;2023-04-06T06:04:57;17.85;;;10.20;;
5343;SDS011;2694;48.954;8.928;2023-04-06T06:07:24;19.02;;;9.57;;
5343;SDS011;2694;48.954;8.928;2023-04-06T06:09:51;17.15;;;10.15;;
5343;SDS011;2694;48.954;8.928;2023-04-06T06:12:18;19.45;;;10.18;;
5343;SDS011;2694;48.954;8.928;2023-04-06T06:14:47;14.13;;;10.00;;
5343;SDS011;2694;48.954;8.928;2023-04-06T06:17:16;15.30;;;9.40;;
5343;SDS011;2694;48.954;8.928;2023-04-06T06:19:43;18.42;;;9.93;;
5343;SDS011;2694;48.954;8.928;2023-04-06T06:22:10;15.23;;;9.82;;
5343;SDS011;2694;48.954;8.928;2023-04-06T06:24:37;18.23;;;9.60;;
5343;SDS011;2694;48.954;8.928;2023-04-06T06:27:04;18.35;;;9.98;;
5343;SDS011;2694;48.954;8.928;2023-04-06T06:29:32;14.57;;;8.90;;
5343;SDS011;2694;48.954;8.928;2023-04-06T06:32:01;18.45;;;9.80;;
5343;SDS011;2694;48.954;8.928;2023-04-06T06:34:28;17.38;;;9.75;;
5343;SDS011;2694;48.954;8.928;2023-04-06T06:36:55;16.10;;;9.60;;
5343;SDS011;2694;48.954;8.928;2023-04-06T06:39:22;15.05;;;8.85;;
5343;SDS011;2694;48.954;8.928;2023-04-06T06:41:50;15.63;;;8.65;;
5343;SDS011;2694;48.954;8.928;2023-04-06T06:44:17;14.95;;;8.20;;
5343;SDS011;2694;48.954;8.928;2023-04-06T06:46:44;14.85;;;8.55;;
5343;SDS011;2694;48.954;8.928;2023-04-06T06:49:12;15.98;;;9.10;;
5343;SDS011;2694;48.954;8.928;2023-04-06T06:51:39;15.27;;;8.40;;
5343;SDS011;2694;48.954;8.928;2023-04-06T06:54:06;12.95;;;7.90;;
5343;SDS011;2694;48.954;8.928;2023-04-06T06:56:33;15.40;;;8.43;;
5343;SDS011;2694;48.954;8.928;2023-04-06T06:59:02;14.90;;;8.77;;
5343;SDS011;2694;48.954;8.928;2023-04-06T07:01:32;14.70;;;8.80;;
5343;SDS011;2694;48.954;8.928;2023-04-06T07:03:59;17.33;;;8.38;;
5343;SDS011;2694;48.954;8.928;2023-04-06T07:06:28;17.67;;;9.20;;
5343;SDS011;2694;48.954;8.928;2023-04-06T07:08:55;17.08;;;9.40;;
5343;SDS011;2694;48.954;8.928;2023-04-06T07:11:22;15.83;;;10.23;;
5343;SDS011;2694;48.954;8.928;2023-04-06T07:13:49;19.23;;;10.80;;
5343;SDS011;2694;48.954;8.928;2023-04-06T07:16:16;13.68;;;9.68;;
5343;SDS011;2694;48.954;8.928;2023-04-06T07:18:43;15.18;;;8.70;;
5343;SDS011;2694;48.954;8.928;2023-04-06T07:21:10;12.90;;;8.25;;
5343;SDS011;2694;48.954;8.928;2023-04-06T07:23:39;17.77;;;8.60;;
5343;SDS011;2694;48.954;8.928;2023-04-06T07:26:06;15.32;;;9.30;;
5343;SDS011;2694;48.954;8.928;2023-04-06T07:28:33;15.87;;;8.90;;
5343;SDS011;2694;48.954;8.928;2023-04-06T07:31:00;15.13;;;8.95;;
5343;SDS011;2694;48.954;8.928;2023-04-06T07:33:27;12.90;;;8.20;;
5343;SDS011;2694;48.954;8.928;2023-04-06T07:35:55;15.20;;;8.18;;
5343;SDS011;2694;48.954;8.928;2023-04-06T07:38:23;15.40;;;8.90;;
5343;SDS011;2694;48.954;8.928;2023-04-06T07:40:52;12.43;;;8.70;;
5343;SDS011;2694;48.954;8.928;2023-04-06T07:43:19;17.05;;;8.98;;
5343;SDS011;2694;48.954;8.928;2023-04-06T07:45:46;16.83;;;8.23;;
5343;SDS011;2694;48.954;8.928;2023-04-06T07:48:13;14.43;;;8.15;;
5343;SDS011;2694;48.954;8.928;2023-04-06T07:50:40;12.87;;;7.67;;
5343;SDS011;2694;48.954;8.928;2023-04-06T07:53:07;14.88;;;8.02;;
5343;SDS011;2694;48.954;8.928;2023-04-06T07:55:35;15.77;;;8.48;;
5343;SDS011;2694;48.954;8.928;2023-04-06T07:58:04;14.90;;;8.20;;
5343;SDS011;2694;48.954;8.928;2023-04-06T08:00:31;16.52;;;9.30;;
5343;SDS011;2694;48.954;8.928;2023-04-06T08:02:59;14.07;;;8.18;;
5343;SDS011;2694;48.954;8.928;2023-04-06T08:05:26;14.02;;;8.50;;
5343;SDS011;2694;48.954;8.928;2023-04-06T08:07:53;13.95;;;7.93;;
5343;SDS011;2694;48.954;8.928;2023-04-06T08:10:20;14.90;;;8.63;;
5343;SDS011;2694;48.954;8.928;2023-04-06T08:12:47;15.18;;;8.55;;
5343;SDS011;2694;48.954;8.928;2023-04-06T08:15:15;13.38;;;8.27;;
5343;SDS011;2694;48.954;8.928;2023-04-06T08:17:43;13.32;;;7.72;;
5343;SDS011;2694;48.954;8.928;2023-04-06T08:20:10;15.75;;;8.40;;
5343;SDS011;2694;48.954;8.928;2023-04-06T08:22:37;12.38;;;7.72;;
5343;SDS011;2694;48.954;8.928;2023-04-06T08:25:04;22.25;;;9.15;;
5343;SDS011;2694;48.954;8.928;2023-04-06T08:27:32;16.73;;;8.55;;
5343;SDS011;2694;48.954;8.928;2023-04-06T08:29:59;14.00;;;7.45;;
5343;SDS011;2694;48.954;8.928;2023-04-06T08:32:28;10.73;;;7.00;;
5343;SDS011;2694;48.954;8.928;2023-04-06T08:34:55;10.40;;;6.80;;
5343;SDS011;2694;48.954;8.928;2023-04-06T08:37:24;17.23;;;7.60;;
5343;SDS011;2694;48.954;8.928;2023-04-06T08:39:59;10.55;;;7.13;;
5343;SDS011;2694;48.954;8.928;2023-04-06T08:42:26;12.60;;;7.05;;
5343;SDS011;2694;48.954;8.928;2023-04-06T08:44:58;13.63;;;7.97;;
5343;SDS011;2694;48.954;8.928;2023-04-06T08:47:27;15.63;;;7.90;;
5343;SDS011;2694;48.954;8.928;2023-04-06T08:49:54;11.25;;;7.50;;
5343;SDS011;2694;48.954;8.928;2023-04-06T08:52:22;13.80;;;7.13;;
5343;SDS011;2694;48.954;8.928;2023-04-06T08:54:51;16.15;;;7.00;;
5343;SDS011;2694;48.954;8.928;2023-04-06T08:57:18;9.43;;;5.40;;
5343;SDS011;2694;48.954;8.928;2023-04-06T08:59:46;11.13;;;6.80;;
5343;SDS011;2694;48.954;8.928;2023-04-06T09:02:15;12.13;;;6.60;;
5343;SDS011;2694;48.954;8.928;2023-04-06T09:04:49;10.57;;;6.45;;
5343;SDS011;2694;48.954;8.928;2023-04-06T09:07:20;10.00;;;6.20;;
5343;SDS011;2694;48.954;8.928;2023-04-06T09:09:47;9.70;;;6.80;;
5343;SDS011;2694;48.954;8.928;2023-04-06T09:12:22;10.73;;;6.10;;
5343;SDS011;2694;48.954;8.928;2023-04-06T09:14:50;12.13;;;6.45;;
5343;SDS011;2694;48.954;8.928;2023-04-06T09:17:20;11.32;;;5.85;;
5343;SDS011;2694;48.954;8.928;2023-04-06T09:19:49;10.95;;;6.63;;
5343;SDS011;2694;48.954;8.928;2023-04-06T09:22:16;10.07;;;5.68;;
5343;SDS011;2694;48.954;8.928;2023-04-06T09:24:45;10.20;;;6.13;;
5343;SDS011;2694;48.954;8.928;2023-04-06T09:27:13;9.27;;;5.78;;
5343;SDS011;2694;48.954;8.928;2023-04-06T09:29:41;8.20;;;5.10;;
5343;SDS011;2694;48.954;8.928;2023-04-06T09:32:09;8.93;;;4.93;;
5343;SDS011;2694;48.954;8.928;2023-04-06T09:34:37;8.45;;;5.50;;
5343;SDS011;2694;48.954;8.928;2023-04-06T09:37:15;10.10;;;5.30;;
5343;SDS011;2694;48.954;8.928;2023-04-06T09:39:44;10.23;;;5.30;;
5343;SDS011;2694;48.954;8.928;2023-04-06T09:42:12;8.20;;;5.50;;
5343;SDS011;2694;48.954;8.928;2023-04-06T09:44:49;8.40;;;5.20;;
5343;SDS011;2694;48.954;8.928;2023-04-06T09:47:17;9.10;;;5.90;;
5343;SDS011;2694;48.954;8.928;2023-04-06T09:49:45;8.77;;;5.23;;
5343;SDS011;2694;48.954;8.928;2023-04-06T09:52:17;10.20;;;5.90;;
5343;SDS011;2694;48.954;8.928;2023-04-06T09:54:45;10.95;;;5.82;;
5343;SDS011;2694;48.954;8.928;2023-04-06T09:57:18;10.75;;;4.82;;
5343;SDS011;2694;48.954;8.928;2023-04-06T09:59:50;9.82;;;5.53;;
5343;SDS011;2694;48.954;8.928;2023-04-06T10:02:25;8.05;;;4.45;;
5343;SDS011;2694;48.954;8.928;2023-04-06T10:05:01;10.07;;;4.97;;
5343;SDS011;2694;48.954;8.928;2023-04-06T10:07:39;11.07;;;7.15;;
5343;SDS011;2694;48.954;8.928;2023-04-06T10:10:08;9.57;;;5.50;;
5343;SDS011;2694;48.954;8.928;2023-04-06T10:12:36;12.95;;;6.55;;
5343;SDS011;2694;48.954;8.928;2023-04-06T10:15:04;11.20;;;6.17;;
5343;SDS011;2694;48.954;8.928;2023-04-06T10:17:32;10.35;;;6.72;;
5343;SDS011;2694;48.954;8.928;2023-04-06T10:20:02;10.10;;;6.35;;
5343;SDS011;2694;48.954;8.928;2023-04-06T10:22:38;13.38;;;6.78;;
5343;SDS011;2694;48.954;8.928;2023-04-06T10:25:09;10.32;;;6.50;;
5343;SDS011;2694;48.954;8.928;2023-04-06T10:27:36;12.48;;;6.95;;
5343;SDS011;2694;48.954;8.928;2023-04-06T10:30:03;11.55;;;6.40;;
5343;SDS011;2694;48.954;8.928;2023-04-06T10:32:32;10.57;;;6.47;;
5343;SDS011;2694;48.954;8.928;2023-04-06T10:35:06;10.57;;;6.03;;
5343;SDS011;2694;48.954;8.928;2023-04-06T10:37:47;12.13;;;6.85;;
5343;SDS011;2694;48.954;8.928;2023-04-06T10:40:22;13.23;;;6.93;;
5343;SDS011;2694;48.954;8.928;2023-04-06T10:42:51;10.98;;;6.80;;
5343;SDS011;2694;48.954;8.928;2023-04-06T10:45:21;11.93;;;7.40;;
5343;SDS011;2694;48.954;8.928;2023-04-06T10:47:49;13.00;;;6.85;;
5343;SDS011;2694;48.954;8.928;2023-04-06T10:50:18;11.75;;;6.90;;
5343;SDS011;2694;48.954;8.928;2023-04-06T10:52:47;14.20;;;6.97;;
5343;SDS011;2694;48.954;8.928;2023-04-06T10:55:24;12.80;;;7.23;;
5343;SDS011;2694;48.954;8.928;2023-04-06T10:57:52;13.93;;;7.57;;
5343;SDS011;2694;48.954;8.928;2023-04-06T11:00:20;14.40;;;6.95;;
5343;SDS011;2694;48.954;8.928;2023-04-06T11:02:47;12.20;;;6.78;;
5343;SDS011;2694;48.954;8.928;2023-04-06T11:05:14;12.30;;;7.88;;
5343;SDS011;2694;48.954;8.928;2023-04-06T11:07:41;13.88;;;7.85;;
5343;SDS011;2694;48.954;8.928;2023-04-06T11:10:11;13.25;;;7.57;;
5343;SDS011;2694;48.954;8.928;2023-04-06T11:12:51;15.75;;;7.90;;
5343;SDS011;2694;48.954;8.928;2023-04-06T11:15:19;12.03;;;7.80;;
5343;SDS011;2694;48.954;8.928;2023-04-06T11:17:46;16.23;;;8.32;;
5343;SDS011;2694;48.954;8.928;2023-04-06T11:20:14;12.68;;;7.35;;
5343;SDS011;2694;48.954;8.928;2023-04-06T11:22:49;12.48;;;7.80;;
5343;SDS011;2694;48.954;8.928;2023-04-06T11:25:18;12.85;;;7.50;;
5343;SDS011;2694;48.954;8.928;2023-04-06T11:27:45;14.00;;;8.18;;
5343;SDS011;2694;48.954;8.928;2023-04-06T11:30:13;11.85;;;7.03;;
5343;SDS011;2694;48.954;8.928;2023-04-06T11:32:41;12.70;;;8.02;;
5343;SDS011;2694;48.954;8.928;2023-04-06T11:35:10;11.80;;;6.77;;
5343;SDS011;2694;48.954;8.928;2023-04-06T11:37:38;15.80;;;7.53;;
5343;SDS011;2694;48.954;8.928;2023-04-06T11:40:07;11.52;;;7.18;;
5343;SDS011;2694;48.954;8.928;2023-04-06T11:42:37;11.63;;;7.25;;
5343;SDS011;2694;48.954;8.928;2023-04-06T11:45:04;12.70;;;7.40;;
5343;SDS011;2694;48.954;8.928;2023-04-06T11:47:35;15.27;;;8.00;;
5343;SDS011;2694;48.954;8.928;2023-04-06T11:50:06;14.48;;;7.60;;
5343;SDS011;2694;48.954;8.928;2023-04-06T11:52:35;14.13;;;8.85;;
5343;SDS011;2694;48.954;8.928;2023-04-06T11:55:10;13.68;;;7.80;;
5343;SDS011;2694;48.954;8.928;2023-04-06T11:57:40;13.30;;;8.10;;
5343;SDS011;2694;48.954;8.928;2023-04-06T12:00:08;11.75;;;7.80;;
5343;SDS011;2694;48.954;8.928;2023-04-06T12:02:37;15.80;;;8.20;;
5343;SDS011;2694;48.954;8.928;2023-04-06T12:05:04;13.33;;;7.97;;
5343;SDS011;2694;48.954;8.928;2023-04-06T12:07:33;16.02;;;8.02;;
5343;SDS011;2694;48.954;8.928;2023-04-06T12:10:01;12.88;;;7.68;;
5343;SDS011;2694;48.954;8.928;2023-04-06T12:12:30;13.27;;;7.70;;
5343;SDS011;2694;48.954;8.928;2023-04-06T12:14:59;18.08;;;8.10;;
5343;SDS011;2694;48.954;8.928;2023-04-06T12:17:27;11.15;;;6.85;;
5343;SDS011;2694;48.954;8.928;2023-04-06T12:19:54;12.10;;;7.70;;
5343;SDS011;2694;48.954;8.928;2023-04-06T12:22:21;9.80;;;7.30;;
5343;SDS011;2694;48.954;8.928;2023-04-06T12:24:51;11.70;;;7.65;;
5343;SDS011;2694;48.954;8.928;2023-04-06T12:27:18;15.83;;;8.53;;
5343;SDS011;2694;48.954;8.928;2023-04-06T12:29:46;15.32;;;8.90;;
5343;SDS011;2694;48.954;8.928;2023-04-06T12:32:15;13.85;;;8.40;;
5343;SDS011;2694;48.954;8.928;2023-04-06T12:34:42;13.10;;;8.52;;
5343;SDS011;2694;48.954;8.928;2023-04-06T12:37:09;13.68;;;7.45;;
5343;SDS011;2694;48.954;8.928;2023-04-06T12:39:36;12.83;;;7.60;;
5343;SDS011;2694;48.954;8.928;2023-04-06T12:42:03;12.85;;;7.50;;
5343;SDS011;2694;48.954;8.928;2023-04-06T12:44:31;15.52;;;7.97;;
5343;SDS011;2694;48.954;8.928;2023-04-06T12:46:59;12.60;;;7.65;;
5343;SDS011;2694;48.954;8.928;2023-04-06T12:49:29;12.40;;;7.60;;
5343;SDS011;2694;48.954;8.928;2023-04-06T12:51:56;11.63;;;7.72;;
5343;SDS011;2694;48.954;8.928;2023-04-06T12:54:24;11.40;;;7.25;;
5343;SDS011;2694;48.954;8.928;2023-04-06T12:56:51;12.25;;;7.57;;
5343;SDS011;2694;48.954;8.928;2023-04-06T12:59:20;12.60;;;7.40;;
5343;SDS011;2694;48.954;8.928;2023-04-06T13:01:51;13.30;;;7.80;;
5343;SDS011;2694;48.954;8.928;2023-04-06T13:04:18;14.02;;;8.27;;
5343;SDS011;2694;48.954;8.928;2023-04-06T13:06:46;13.27;;;8.00;;
5343;SDS011;2694;48.954;8.928;2023-04-06T13:09:14;17.43;;;7.87;;
5343;SDS011;2694;48.954;8.928;2023-04-06T13:11:42;10.35;;;6.50;;
5343;SDS011;2694;48.954;8.928;2023-04-06T13:14:09;14.40;;;7.00;;
5343;SDS011;2694;48.954;8.928;2023-04-06T13:16:36;16.02;;;8.00;;
5343;SDS011;2694;48.954;8.928;2023-04-06T13:19:03;11.10;;;6.63;;
5343;SDS011;2694;48.954;8.928;2023-04-06T13:21:30;12.98;;;7.03;;
5343;SDS011;2694;48.954;8.928;2023-04-06T13:23:59;12.15;;;7.13;;
5343;SDS011;2694;48.954;8.928;2023-04-06T13:26:26;13.48;;;7.82;;
5343;SDS011;2694;48.954;8.928;2023-04-06T13:28:53;10.55;;;6.70;;
5343;SDS011;2694;48.954;8.928;2023-04-06T13:31:21;13.65;;;7.68;;
5343;SDS011;2694;48.954;8.928;2023-04-06T13:33:48;11.88;;;7.28;;
5343;SDS011;2694;48.954;8.928;2023-04-06T13:36:15;13.15;;;7.53;;
5343;SDS011;2694;48.954;8.928;2023-04-06T13:38:42;10.93;;;7.25;;
5343;SDS011;2694;48.954;8.928;2023-04-06T13:41:11;11.40;;;7.22;;
5343;SDS011;2694;48.954;8.928;2023-04-06T13:43:45;11.35;;;6.70;;
5343;SDS011;2694;48.954;8.928;2023-04-06T13:46:13;10.90;;;6.88;;
5343;SDS011;2694;48.954;8.928;2023-04-06T13:48:40;12.48;;;7.47;;
5343;SDS011;2694;48.954;8.928;2023-04-06T13:51:08;11.13;;;6.50;;
5343;SDS011;2694;48.954;8.928;2023-04-06T13:53:35;10.98;;;6.80;;
5343;SDS011;2694;48.954;8.928;2023-04-06T13:56:02;18.60;;;7.43;;
5343;SDS011;2694;48.954;8.928;2023-04-06T13:58:31;10.18;;;7.10;;
5343;SDS011;2694;48.954;8.928;2023-04-06T14:01:01;9.30;;;5.93;;
5343;SDS011;2694;48.954;8.928;2023-04-06T14:03:29;11.70;;;6.57;;
5343;SDS011;2694;48.954;8.928;2023-04-06T14:05:56;11.25;;;7.07;;
5343;SDS011;2694;48.954;8.928;2023-04-06T14:08:23;11.45;;;6.90;;
5343;SDS011;2694;48.954;8.928;2023-04-06T14:10:50;10.00;;;6.75;;
5343;SDS011;2694;48.954;8.928;2023-04-06T14:13:17;12.57;;;6.80;;
5343;SDS011;2694;48.954;8.928;2023-04-06T14:15:45;13.02;;;6.50;;
5343;SDS011;2694;48.954;8.928;2023-04-06T14:18:12;14.68;;;7.00;;
5343;SDS011;2694;48.954;8.928;2023-04-06T14:20:39;10.00;;;5.90;;
5343;SDS011;2694;48.954;8.928;2023-04-06T14:23:06;11.85;;;6.80;;
5343;SDS011;2694;48.954;8.928;2023-04-06T14:25:33;16.10;;;6.15;;
5343;SDS011;2694;48.954;8.928;2023-04-06T14:28:00;16.25;;;6.40;;
5343;SDS011;2694;48.954;8.928;2023-04-06T14:30:29;12.10;;;5.90;;
5343;SDS011;2694;48.954;8.928;2023-04-06T14:32:57;11.13;;;6.35;;
5343;SDS011;2694;48.954;8.928;2023-04-06T14:35:24;10.98;;;6.70;;
5343;SDS011;2694;48.954;8.928;2023-04-06T14:37:53;12.93;;;6.70;;
5343;SDS011;2694;48.954;8.928;2023-04-06T14:40:21;13.15;;;7.00;;
5343;SDS011;2694;48.954;8.928;2023-04-06T14:42:48;10.65;;;5.75;;
5343;SDS011;2694;48.954;8.928;2023-04-06T14:45:16;11.27;;;6.32;;
5343;SDS011;2694;48.954;8.928;2023-04-06T14:47:49;12.30;;;6.60;;
5343;SDS011;2694;48.954;8.928;2023-04-06T14:50:19;14.88;;;6.10;;
5343;SDS011;2694;48.954;8.928;2023-04-06T14:52:46;14.88;;;6.78;;
5343;SDS011;2694;48.954;8.928;2023-04-06T14:55:19;11.88;;;5.85;;
5343;SDS011;2694;48.954;8.928;2023-04-06T14:57:48;12.52;;;5.95;;
5343;SDS011;2694;48.954;8.928;2023-04-06T15:00:15;12.90;;;6.28;;
5343;SDS011;2694;48.954;8.928;2023-04-06T15:02:43;12.48;;;6.60;;
5343;SDS011;2694;48.954;8.928;2023-04-06T15:05:10;11.05;;;6.80;;
5343;SDS011;2694;48.954;8.928;2023-04-06T15:07:38;10.55;;;6.75;;